Terminal Aerodrome Forecast
Issued by NWS

Home | Current Version | Previous Version | Text Only | Print | Product List | Glossary On
Versions: 1 2 3 4 5 6 7 8 9 10 11 12 13 14
000
FTUS46 KLOX 200300 AAA
TAFBUR
TAF AMD
KBUR 200340Z 2004/2024 VRB03KT P6SM BKN015
     FM200700 15007KT P6SM -DZ OVC015
     FM201300 15007KT P6SM VCSH OVC020
     FM202000 16010KT P6SM VCSH SCT030=

USA.gov is the U.S. government's official web portal to all federal, state and local government web resources and services.